Terminal Aerodrome Forecast
Issued by NWS Tampa Bay Area, FL

Home | Current Version | Previous Version | Text Only | Print | Product List | Glossary On
Versions: 1 2 3 4 5 6 7 8 9 10 11 12 13 14
000
FTUS42 KTBW 251732
TAFFMY
TAF
KFMY 251732Z 2518/2618 19003KT P6SM VCTS BKN030CB
     FM260300 VRB03KT P6SM SCT040
     FM261700 18004KT P6SM BKN080=

USA.gov is the U.S. government's official web portal to all federal, state and local government web resources and services.